LTAT/MLX METAR and TAF weather

Enter ICAO airport designator
Station Type Date Time Source
LTAT METAR 2019/12/12 16:50 UTC NOAA

LTAT 121650Z 36006KT 9999 -RA SCT006 BKN035 BKN090 05/04 Q1015 NOSIG


Station Type Date Time Source
LTAT Decoded METAR 2019/12/12 16:50 UTC NOAA

Malatya / Erhac, Turkey (LTAT) 38-26N 038-05E 849M
Dec 12, 2019 - 11:50 AM EST / 2019.12.12 1650 UTC
Wind: from the N (360 degrees) at 7 MPH (6 KT):0
Visibility: greater than 7 mile(s):0
Sky conditions: mostly cloudy
Weather: light rain
Temperature: 41 F (5 C)
Dew Point: 39 F (4 C)
Relative Humidity: 93%
Pressure (altimeter): 29.97 in. Hg (1015 hPa)
ob: LTAT 121650Z 36006KT 9999 -RA SCT006 BKN035 BKN090 05/04 Q1015 NOSIG
cycle: 17

Station Type Date Time Source
LTAT TAF 2019/12/12 18:03 UTC NOAA

TAF LTAT 121640Z 1218/1318 VRB02KT 6000 SCT006 BKN033
TEMPO 1218/1222 -RA PROB30
TEMPO 1223/1303 4000 -RA BR PROB30
TEMPO 1303/1307 1200 -RA BCFG
TEMPO 1308/1312 -RA

Example: see airport list